Terminal Aerodrome Forecast
Issued by NWS Cleveland, OH

Home | Current Version | Previous Version | Graphics & Text | Print | Product List | Glossary Off
Versions: 1 2 3 4 5 6 7 8 9 10 11 12 13 14 15 16 17 18

000
FTUS41 KCLE 240539
TAFMFD
TAF
KMFD 240539Z 2406/2506 22005KT P6SM SKC
     FM241400 20009KT P6SM SKC
     FM241700 20013G21KT P6SM FEW250
     FM250300 21015G24KT P6SM BKN150=

USA.gov is the U.S. government's official web portal to all federal, state and local government web resources and services.